Time;durP1;ratioP1;P1;durP2;ratioP2;P2;SDS_P1;SDS_P2;PMS_P1;PMS_P2;Temp;Humidity;BMP_temperature;BMP_pressure;BME280_temperature;BME280_humidity;BME280_pressure;Samples;Min_cycle;Max_cycle;Signal;HPM_P1;HPM_P2
2023/12/26 00:02:18;;;;;;;5.63;2.10;;;;;;;;;;5015794;28;20476;-79
2023/12/26 00:04:44;;;;;;;2.77;1.40;;;;;;;;;;5016326;28;20533;-79
2023/12/26 00:07:10;;;;;;;5.10;1.90;;;;;;;;;;5016309;28;20193;-79
2023/12/26 00:09:42;;;;;;;4.87;1.63;;;;;;;;;;5016370;28;20509;-79
2023/12/26 00:12:08;;;;;;;4.00;1.23;;;;;;;;;;5016138;28;20553;-79
2023/12/26 00:14:34;;;;;;;5.03;1.40;;;;;;;;;;5016243;28;20450;-79
2023/12/26 00:17:00;;;;;;;4.27;1.20;;;;;;;;;;5015768;28;20920;-78
2023/12/26 00:19:26;;;;;;;3.00;1.23;;;;;;;;;;5016126;28;20411;-79
2023/12/26 00:21:52;;;;;;;4.03;0.90;;;;;;;;;;5016118;28;20544;-79
2023/12/26 00:24:18;;;;;;;1.77;1.00;;;;;;;;;;5015805;28;20822;-79
2023/12/26 00:26:43;;;;;;;2.77;0.40;;;;;;;;;;5015962;28;20473;-79
2023/12/26 00:29:09;;;;;;;1.73;0.33;;;;;;;;;;5015874;28;20171;-79
2023/12/26 00:31:39;;;;;;;3.23;0.40;;;;;;;;;;5015272;28;20217;-79
2023/12/26 00:34:05;;;;;;;4.37;0.47;;;;;;;;;;5015758;28;20420;-79
2023/12/26 00:36:31;;;;;;;3.67;0.30;;;;;;;;;;5015691;28;20413;-77
2023/12/26 00:38:57;;;;;;;2.23;0.50;;;;;;;;;;5015704;28;20536;-78
2023/12/26 00:41:23;;;;;;;1.47;0.20;;;;;;;;;;5015691;28;20172;-78
2023/12/26 00:43:52;;;;;;;4.40;0.27;;;;;;;;;;5015563;28;20171;-79
2023/12/26 00:46:19;;;;;;;0.60;0.60;;;;;;;;;;5015262;28;20458;-78
2023/12/26 00:48:45;;;;;;;0.70;0.20;;;;;;;;;;5030734;28;20762;-79
2023/12/26 00:51:11;;;;;;;3.03;0.50;;;;;;;;;;5015520;28;20459;-78
2023/12/26 00:53:37;;;;;;;1.83;0.40;;;;;;;;;;5015237;28;20435;-78
2023/12/26 00:56:07;;;;;;;1.03;0.20;;;;;;;;;;5015214;28;20418;-78
2023/12/26 00:58:33;;;;;;;1.00;0.20;;;;;;;;;;5015196;28;20420;-78
2023/12/26 01:00:59;;;;;;;2.77;0.20;;;;;;;;;;5014691;28;20451;-78
2023/12/26 01:03:25;;;;;;;1.50;0.20;;;;;;;;;;5015236;28;20701;-78
2023/12/26 01:05:51;;;;;;;0.70;0.20;;;;;;;;;;5015152;28;20168;-79
2023/12/26 01:08:18;;;;;;;1.07;0.20;;;;;;;;;;5014956;28;20929;-78
2023/12/26 01:10:44;;;;;;;0.50;0.30;;;;;;;;;;5014668;28;20411;-79
2023/12/26 01:13:10;;;;;;;4.07;0.40;;;;;;;;;;5014675;28;20433;-79
2023/12/26 01:15:36;;;;;;;1.07;0.20;;;;;;;;;;5014854;28;20491;-78
2023/12/26 01:18:02;;;;;;;1.40;0.20;;;;;;;;;;5014474;28;20520;-79
2023/12/26 01:20:29;;;;;;;1.60;0.20;;;;;;;;;;5030049;28;20519;-79
2023/12/26 01:22:55;;;;;;;1.40;0.30;;;;;;;;;;5014861;28;20417;-79
2023/12/26 01:25:21;;;;;;;1.43;0.30;;;;;;;;;;5014854;28;20428;-78
2023/12/26 01:27:47;;;;;;;2.60;0.30;;;;;;;;;;5014696;28;20417;-79
2023/12/26 01:30:14;;;;;;;1.53;0.67;;;;;;;;;;5014777;28;20448;-79
2023/12/26 01:32:40;;;;;;;2.00;0.93;;;;;;;;;;5014239;28;20504;-79
2023/12/26 01:35:06;;;;;;;1.60;0.67;;;;;;;;;;5029850;28;20442;-79
2023/12/26 01:37:32;;;;;;;2.90;0.90;;;;;;;;;;5014727;28;20459;-79
2023/12/26 01:39:58;;;;;;;3.20;1.43;;;;;;;;;;5014595;28;20445;-78
2023/12/26 01:42:24;;;;;;;7.27;1.30;;;;;;;;;;5014535;28;21262;-79
2023/12/26 01:44:50;;;;;;;3.47;1.90;;;;;;;;;;5029151;28;20410;-79
2023/12/26 01:47:16;;;;;;;2.60;1.20;;;;;;;;;;5012982;28;20436;-79
2023/12/26 01:49:43;;;;;;;2.57;1.00;;;;;;;;;;5013706;28;21300;-79
2023/12/26 01:52:10;;;;;;;4.10;1.57;;;;;;;;;;5013551;28;20649;-80
2023/12/26 01:54:37;;;;;;;2.83;1.27;;;;;;;;;;5014038;28;20406;-79
2023/12/26 01:57:05;;;;;;;1.67;0.80;;;;;;;;;;5014159;28;20952;-79
2023/12/26 01:59:30;;;;;;;2.80;0.60;;;;;;;;;;5013344;28;20434;-79
2023/12/26 02:01:57;;;;;;;4.53;2.23;;;;;;;;;;5027069;28;20481;-79
2023/12/26 02:04:23;;;;;;;4.47;0.90;;;;;;;;;;5013090;28;20174;-79
2023/12/26 02:06:49;;;;;;;2.90;0.60;;;;;;;;;;5013397;28;20467;-78
2023/12/26 02:09:15;;;;;;;2.43;1.37;;;;;;;;;;5013855;28;20429;-79
2023/12/26 02:11:42;;;;;;;1.57;0.80;;;;;;;;;;5013803;28;20458;-79
2023/12/26 02:14:09;;;;;;;1.17;0.30;;;;;;;;;;5013855;28;20409;-78
2023/12/26 02:16:36;;;;;;;5.40;0.80;;;;;;;;;;5013314;28;20818;-79
2023/12/26 02:19:08;;;;;;;2.07;0.90;;;;;;;;;;5011210;28;20510;-79
2023/12/26 02:21:34;;;;;;;2.20;0.63;;;;;;;;;;5013652;28;20447;-78
2023/12/26 02:24:00;;;;;;;1.97;0.37;;;;;;;;;;5013548;28;20484;-79
2023/12/26 02:26:28;;;;;;;2.10;1.13;;;;;;;;;;5013521;28;20980;-78
2023/12/26 02:28:55;;;;;;;1.53;0.77;;;;;;;;;;5013552;28;20421;-79
2023/12/26 02:31:21;;;;;;;1.20;0.50;;;;;;;;;;5010561;28;20560;-79
2023/12/26 02:33:48;;;;;;;2.13;0.53;;;;;;;;;;5013475;28;20448;-79
2023/12/26 02:36:14;;;;;;;1.40;0.63;;;;;;;;;;5013410;28;20417;-79
2023/12/26 02:38:40;;;;;;;1.10;0.40;;;;;;;;;;5013309;28;20417;-79
2023/12/26 02:41:06;;;;;;;1.37;0.40;;;;;;;;;;5013336;28;20775;-78
2023/12/26 02:43:35;;;;;;;2.60;0.43;;;;;;;;;;5013333;28;20412;-79
2023/12/26 02:46:01;;;;;;;1.30;0.47;;;;;;;;;;5010328;28;20418;-79
2023/12/26 02:48:27;;;;;;;4.10;0.50;;;;;;;;;;5013116;28;20908;-77
2023/12/26 02:50:53;;;;;;;1.63;0.50;;;;;;;;;;5013101;28;20509;-79
2023/12/26 02:53:19;;;;;;;1.70;0.53;;;;;;;;;;5013017;28;20459;-78
2023/12/26 02:55:45;;;;;;;1.47;0.20;;;;;;;;;;5013129;28;20411;-79
2023/12/26 02:58:11;;;;;;;1.50;0.27;;;;;;;;;;5013124;28;20430;-79
2023/12/26 03:00:37;;;;;;;0.73;0.30;;;;;;;;;;5012523;28;20791;-79
2023/12/26 03:03:03;;;;;;;1.90;0.43;;;;;;;;;;5028683;28;20429;-78
2023/12/26 03:05:29;;;;;;;0.87;0.20;;;;;;;;;;5013404;28;20417;-79
2023/12/26 03:07:55;;;;;;;0.90;0.20;;;;;;;;;;5013380;28;20408;-79
2023/12/26 03:10:21;;;;;;;1.83;0.30;;;;;;;;;;5028626;28;20437;-78
2023/12/26 03:12:47;;;;;;;0.80;0.20;;;;;;;;;;5013315;28;20951;-79
2023/12/26 03:15:13;;;;;;;0.53;0.17;;;;;;;;;;5013366;28;20204;-78
2023/12/26 03:17:39;;;;;;;0.40;0.20;;;;;;;;;;5012911;28;20413;-78
2023/12/26 03:20:05;;;;;;;0.70;0.20;;;;;;;;;;5013302;28;20449;-78
2023/12/26 03:22:31;;;;;;;1.37;0.20;;;;;;;;;;5013266;28;20418;-78
2023/12/26 03:24:57;;;;;;;1.43;0.40;;;;;;;;;;5013084;28;20857;-78
2023/12/26 03:27:24;;;;;;;0.40;0.20;;;;;;;;;;5012722;28;20454;-78
2023/12/26 03:29:49;;;;;;;1.23;0.20;;;;;;;;;;5012676;28;20636;-79
2023/12/26 03:32:17;;;;;;;0.60;0.20;;;;;;;;;;5012179;28;20472;-79
2023/12/26 03:34:43;;;;;;;0.63;0.20;;;;;;;;;;5014005;28;20174;-78
2023/12/26 03:37:10;;;;;;;2.53;0.20;;;;;;;;;;5016918;28;20407;-78
2023/12/26 03:39:37;;;;;;;2.70;0.30;;;;;;;;;;5016502;28;20179;-77
2023/12/26 03:42:03;;;;;;;0.40;0.20;;;;;;;;;;5015357;28;20781;-76
2023/12/26 03:44:29;;;;;;;2.53;0.27;;;;;;;;;;5017076;28;20759;-77
2023/12/26 03:46:55;;;;;;;0.70;0.30;;;;;;;;;;5016730;28;20418;-78
2023/12/26 03:49:21;;;;;;;1.73;0.33;;;;;;;;;;5016978;28;20425;-78
2023/12/26 03:51:47;;;;;;;1.50;0.20;;;;;;;;;;5016919;28;20459;-78
2023/12/26 03:54:18;;;;;;;0.50;0.20;;;;;;;;;;5016841;28;20995;-78
2023/12/26 03:56:44;;;;;;;0.90;0.20;;;;;;;;;;5016950;28;20411;-78
2023/12/26 03:59:10;;;;;;;0.80;0.10;;;;;;;;;;5016760;28;20773;-78
2023/12/26 04:01:36;;;;;;;1.30;0.23;;;;;;;;;;5016201;28;20465;-79
2023/12/26 04:04:03;;;;;;;0.40;0.30;;;;;;;;;;5016682;28;20422;-79
2023/12/26 04:06:29;;;;;;;1.07;0.20;;;;;;;;;;5016703;28;20415;-78
2023/12/26 04:08:55;;;;;;;0.40;0.20;;;;;;;;;;5016633;28;20480;-77
2023/12/26 04:11:21;;;;;;;0.30;0.10;;;;;;;;;;5016537;28;20458;-78
2023/12/26 04:13:46;;;;;;;0.97;0.20;;;;;;;;;;5016543;28;21022;-79
2023/12/26 04:16:12;;;;;;;4.90;0.20;;;;;;;;;;5016151;28;20408;-78
2023/12/26 04:18:38;;;;;;;0.53;0.10;;;;;;;;;;5016551;28;20208;-79
2023/12/26 04:21:04;;;;;;;1.47;0.50;;;;;;;;;;5016432;28;20412;-79
2023/12/26 04:23:30;;;;;;;1.33;0.20;;;;;;;;;;5016424;28;20408;-78
2023/12/26 04:25:56;;;;;;;2.87;0.20;;;;;;;;;;5015165;28;20402;-78
2023/12/26 04:28:22;;;;;;;0.67;0.20;;;;;;;;;;5016331;28;20764;-78
2023/12/26 04:30:48;;;;;;;1.37;0.20;;;;;;;;;;5015822;28;20412;-77
2023/12/26 04:33:14;;;;;;;0.80;0.20;;;;;;;;;;5016084;28;20312;-78
2023/12/26 04:35:40;;;;;;;2.53;0.20;;;;;;;;;;5016239;28;20456;-79
2023/12/26 04:38:10;;;;;;;0.50;0.17;;;;;;;;;;5016096;28;21021;-77
2023/12/26 04:40:36;;;;;;;1.93;0.20;;;;;;;;;;5016081;28;20409;-78
2023/12/26 04:43:02;;;;;;;3.37;0.30;;;;;;;;;;5015926;28;20430;-79
2023/12/26 04:45:28;;;;;;;0.50;0.20;;;;;;;;;;5015274;28;20401;-78
2023/12/26 04:47:54;;;;;;;2.03;0.27;;;;;;;;;;5015190;28;20425;-79
2023/12/26 04:50:20;;;;;;;3.73;0.20;;;;;;;;;;5015960;28;20417;-78
2023/12/26 04:52:46;;;;;;;5.23;0.50;;;;;;;;;;5015768;28;20530;-79
2023/12/26 04:55:12;;;;;;;0.70;0.20;;;;;;;;;;5015802;28;20892;-79
2023/12/26 04:57:38;;;;;;;2.70;0.40;;;;;;;;;;5015783;28;20182;-78
2023/12/26 05:00:04;;;;;;;3.17;0.27;;;;;;;;;;5015660;28;20414;-78
2023/12/26 05:02:30;;;;;;;3.53;0.43;;;;;;;;;;5015128;28;20973;-78
2023/12/26 05:04:56;;;;;;;7.20;0.33;;;;;;;;;;5015563;28;20417;-79
2023/12/26 05:07:22;;;;;;;5.20;0.80;;;;;;;;;;5015564;28;20176;-78
2023/12/26 05:09:48;;;;;;;6.57;1.00;;;;;;;;;;5015577;28;20403;-77
2023/12/26 05:12:14;;;;;;;9.90;1.00;;;;;;;;;;5015306;28;20473;-78
2023/12/26 05:14:40;;;;;;;3.30;0.30;;;;;;;;;;5015425;28;20971;-77
2023/12/26 05:17:06;;;;;;;6.70;0.33;;;;;;;;;;5015061;28;20178;-77
2023/12/26 05:19:31;;;;;;;6.23;0.60;;;;;;;;;;5015311;28;20414;-77
2023/12/26 05:21:57;;;;;;;6.27;0.60;;;;;;;;;;5015247;28;20421;-78
2023/12/26 05:24:23;;;;;;;8.83;1.03;;;;;;;;;;5015361;28;20187;-78
2023/12/26 05:26:49;;;;;;;5.40;0.77;;;;;;;;;;5015149;28;20442;-78
2023/12/26 05:29:16;;;;;;;9.03;1.70;;;;;;;;;;5015032;28;20778;-77
2023/12/26 05:31:41;;;;;;;2.13;0.40;;;;;;;;;;5014700;28;20467;-79
2023/12/26 05:34:08;;;;;;;7.27;0.77;;;;;;;;;;5014962;28;20415;-77
2023/12/26 05:36:34;;;;;;;5.90;0.47;;;;;;;;;;5030312;28;20413;-78
2023/12/26 05:39:00;;;;;;;11.80;1.60;;;;;;;;;;5015004;28;20430;-78
2023/12/26 05:41:26;;;;;;;6.20;0.20;;;;;;;;;;5014860;28;20905;-78
2023/12/26 05:43:52;;;;;;;6.40;1.43;;;;;;;;;;5014816;28;20472;-78
2023/12/26 05:46:20;;;;;;;5.40;0.53;;;;;;;;;;5014466;28;20420;-78
2023/12/26 05:48:46;;;;;;;8.07;1.10;;;;;;;;;;5029999;28;20453;-78
2023/12/26 05:51:12;;;;;;;8.63;1.33;;;;;;;;;;5014620;28;20457;-78
2023/12/26 05:53:40;;;;;;;10.50;3.07;;;;;;;;;;5014637;28;20453;-77
2023/12/26 05:56:06;;;;;;;10.63;0.87;;;;;;;;;;5014623;28;20459;-78
2023/12/26 05:58:32;;;;;;;3.03;0.70;;;;;;;;;;5014233;28;20835;-77
2023/12/26 06:00:58;;;;;;;5.37;0.77;;;;;;;;;;5014127;28;20457;-78
2023/12/26 06:03:24;;;;;;;5.67;1.13;;;;;;;;;;5014521;28;20641;-77
2023/12/26 06:05:50;;;;;;;3.83;0.77;;;;;;;;;;5014433;28;20421;-78
2023/12/26 06:08:17;;;;;;;9.23;0.57;;;;;;;;;;5014411;28;20420;-78
2023/12/26 06:10:43;;;;;;;6.10;0.67;;;;;;;;;;5014391;28;20929;-78
2023/12/26 06:13:09;;;;;;;11.50;1.13;;;;;;;;;;5029429;28;20474;-77
2023/12/26 06:15:35;;;;;;;6.20;1.23;;;;;;;;;;5013960;28;20503;-78
2023/12/26 06:18:01;;;;;;;7.87;1.07;;;;;;;;;;5014205;28;20410;-78
2023/12/26 06:20:27;;;;;;;4.63;0.33;;;;;;;;;;5014429;28;20413;-78
2023/12/26 06:22:53;;;;;;;3.70;0.60;;;;;;;;;;5014469;28;20866;-78
2023/12/26 06:25:19;;;;;;;8.13;0.93;;;;;;;;;;5014460;28;20776;-78
2023/12/26 06:27:45;;;;;;;12.40;0.80;;;;;;;;;;5014406;28;20501;-77
2023/12/26 06:30:12;;;;;;;16.50;1.60;;;;;;;;;;5014045;28;21315;-78
2023/12/26 06:32:38;;;;;;;9.27;0.83;;;;;;;;;;5014343;28;21085;-78
2023/12/26 06:35:04;;;;;;;7.50;1.20;;;;;;;;;;5014385;28;20410;-78
2023/12/26 06:37:30;;;;;;;8.20;0.67;;;;;;;;;;5014390;28;20494;-78
2023/12/26 06:39:56;;;;;;;5.00;1.00;;;;;;;;;;5014272;28;20822;-78
2023/12/26 06:42:23;;;;;;;7.67;0.77;;;;;;;;;;5014310;28;20423;-78
2023/12/26 06:44:49;;;;;;;8.60;1.17;;;;;;;;;;5029292;28;20948;-78
2023/12/26 06:47:15;;;;;;;8.63;1.77;;;;;;;;;;5014257;28;20421;-78
2023/12/26 06:49:45;;;;;;;2.80;0.50;;;;;;;;;;5014317;28;20408;-78
2023/12/26 06:52:13;;;;;;;8.37;1.47;;;;;;;;;;5013971;28;20563;-78
2023/12/26 06:54:39;;;;;;;8.77;1.33;;;;;;;;;;5029179;28;20924;-78
2023/12/26 06:57:08;;;;;;;11.47;2.43;;;;;;;;;;5013566;28;20436;-77
2023/12/26 06:59:34;;;;;;;9.27;1.03;;;;;;;;;;5013882;28;20406;-78
2023/12/26 07:02:00;;;;;;;6.90;1.10;;;;;;;;;;5013389;28;20612;-77
2023/12/26 07:04:27;;;;;;;5.90;1.13;;;;;;;;;;5013811;28;20441;-76
2023/12/26 07:06:53;;;;;;;7.03;1.37;;;;;;;;;;5013783;28;20436;-77
2023/12/26 07:09:19;;;;;;;8.30;1.40;;;;;;;;;;5013018;28;20914;-77
2023/12/26 07:11:45;;;;;;;4.90;1.50;;;;;;;;;;5012160;28;20787;-78
2023/12/26 07:14:11;;;;;;;5.67;1.10;;;;;;;;;;5013712;28;20495;-77
2023/12/26 07:16:37;;;;;;;8.60;1.30;;;;;;;;;;5013216;28;20448;-78
2023/12/26 07:19:03;;;;;;;8.23;0.80;;;;;;;;;;5013442;28;20422;-77
2023/12/26 07:21:29;;;;;;;9.50;1.40;;;;;;;;;;5012332;28;20429;-78
2023/12/26 07:23:55;;;;;;;6.23;0.87;;;;;;;;;;5012433;28;20418;-77
2023/12/26 07:26:23;;;;;;;7.30;1.40;;;;;;;;;;5013563;28;20754;-78
2023/12/26 07:28:50;;;;;;;11.17;1.70;;;;;;;;;;5013594;28;20420;-77
2023/12/26 07:31:28;;;;;;;5.00;0.50;;;;;;;;;;5012799;28;20406;-78
2023/12/26 07:33:55;;;;;;;9.07;1.37;;;;;;;;;;5013254;28;20906;-78
2023/12/26 07:36:21;;;;;;;11.97;1.53;;;;;;;;;;5013259;28;20409;-77
2023/12/26 07:38:47;;;;;;;5.97;0.67;;;;;;;;;;5013255;28;20415;-78
2023/12/26 07:41:13;;;;;;;9.27;1.40;;;;;;;;;;5013188;28;20421;-77
2023/12/26 07:43:39;;;;;;;10.53;1.03;;;;;;;;;;5013160;28;20417;-77
2023/12/26 07:46:05;;;;;;;13.60;0.90;;;;;;;;;;5011320;28;20430;-77
2023/12/26 07:48:31;;;;;;;15.60;1.97;;;;;;;;;;5013112;28;20830;-78
2023/12/26 07:50:57;;;;;;;8.67;1.53;;;;;;;;;;5013035;28;20900;-78
2023/12/26 07:53:23;;;;;;;7.70;1.50;;;;;;;;;;5012935;28;20922;-77
2023/12/26 07:55:49;;;;;;;12.30;1.10;;;;;;;;;;5013029;28;20427;-79
2023/12/26 07:58:15;;;;;;;8.97;1.70;;;;;;;;;;5013022;28;20416;-77
2023/12/26 08:00:41;;;;;;;12.17;2.23;;;;;;;;;;5012491;28;20531;-79
2023/12/26 08:03:07;;;;;;;5.17;1.10;;;;;;;;;;5011768;28;20765;-77
2023/12/26 08:05:33;;;;;;;7.63;1.20;;;;;;;;;;5012960;28;20406;-77
2023/12/26 08:07:59;;;;;;;9.50;1.00;;;;;;;;;;5012850;28;20412;-76
2023/12/26 08:10:25;;;;;;;6.90;1.40;;;;;;;;;;5011658;28;20424;-78
2023/12/26 08:12:51;;;;;;;7.83;0.77;;;;;;;;;;5012770;28;20476;-77
2023/12/26 08:15:17;;;;;;;10.40;1.10;;;;;;;;;;5012491;28;20419;-77
2023/12/26 08:17:43;;;;;;;12.97;1.83;;;;;;;;;;5012853;28;20410;-78
2023/12/26 08:20:10;;;;;;;11.90;2.00;;;;;;;;;;5013049;28;20425;-77
2023/12/26 08:22:35;;;;;;;5.40;1.63;;;;;;;;;;5016358;28;20417;-79
2023/12/26 08:25:01;;;;;;;13.88;1.92;;;;;;;;;;5016002;28;20509;-79
2023/12/26 08:27:27;;;;;;;10.10;1.93;;;;;;;;;;5016304;28;20185;-76
2023/12/26 08:29:53;;;;;;;12.40;1.17;;;;;;;;;;5015979;28;20414;-78
2023/12/26 08:32:19;;;;;;;16.00;2.30;;;;;;;;;;5014885;28;20897;-77
2023/12/26 08:34:45;;;;;;;10.43;1.37;;;;;;;;;;5016208;28;20407;-77
2023/12/26 08:37:12;;;;;;;10.83;1.43;;;;;;;;;;5016252;28;20477;-78
2023/12/26 08:39:38;;;;;;;10.00;2.63;;;;;;;;;;5016089;28;20766;-76
2023/12/26 08:42:04;;;;;;;12.57;2.07;;;;;;;;;;5015972;28;20418;-77
2023/12/26 08:44:30;;;;;;;13.43;1.57;;;;;;;;;;5015689;28;20930;-77
2023/12/26 08:46:56;;;;;;;8.53;1.57;;;;;;;;;;5016182;28;20419;-77
2023/12/26 08:49:22;;;;;;;10.67;1.00;;;;;;;;;;5015981;28;20958;-77
2023/12/26 08:51:48;;;;;;;8.77;1.33;;;;;;;;;;5015769;28;20601;-78
2023/12/26 08:54:14;;;;;;;7.37;1.43;;;;;;;;;;5015924;28;20932;-78
2023/12/26 08:56:41;;;;;;;11.00;1.30;;;;;;;;;;5015898;28;20452;-78
2023/12/26 08:59:07;;;;;;;6.83;1.27;;;;;;;;;;5015813;28;20936;-78
2023/12/26 09:01:35;;;;;;;5.83;1.07;;;;;;;;;;5013964;28;20464;-78
2023/12/26 09:04:01;;;;;;;9.40;1.43;;;;;;;;;;5015676;28;20551;-78
2023/12/26 09:06:27;;;;;;;10.77;1.53;;;;;;;;;;5015555;28;20447;-77
2023/12/26 09:08:53;;;;;;;7.50;1.20;;;;;;;;;;5015372;28;20432;-78
2023/12/26 09:11:19;;;;;;;7.83;1.40;;;;;;;;;;5015468;28;20765;-77
2023/12/26 09:13:45;;;;;;;7.67;0.70;;;;;;;;;;5015496;28;20194;-77
2023/12/26 09:16:11;;;;;;;6.83;1.10;;;;;;;;;;5015102;28;20405;-77
2023/12/26 09:18:37;;;;;;;9.57;1.37;;;;;;;;;;5015395;28;20431;-77
2023/12/26 09:21:03;;;;;;;11.70;1.57;;;;;;;;;;5015229;28;20836;-77
2023/12/26 09:23:29;;;;;;;10.37;1.60;;;;;;;;;;5015374;28;20453;-77
2023/12/26 09:25:55;;;;;;;9.17;1.53;;;;;;;;;;5015286;28;20917;-77
2023/12/26 09:28:20;;;;;;;10.77;1.50;;;;;;;;;;5015168;28;20414;-77
2023/12/26 09:30:46;;;;;;;8.47;1.83;;;;;;;;;;5014802;28;20410;-78
2023/12/26 09:33:12;;;;;;;9.70;1.33;;;;;;;;;;5014447;28;20958;-77
2023/12/26 09:35:38;;;;;;;12.93;2.40;;;;;;;;;;5015047;28;20407;-77
2023/12/26 09:38:04;;;;;;;9.63;1.20;;;;;;;;;;5015078;28;20542;-77
2023/12/26 09:40:30;;;;;;;9.03;1.10;;;;;;;;;;5015094;28;20411;-78
2023/12/26 09:43:02;;;;;;;9.20;1.43;;;;;;;;;;5014975;28;20413;-78
2023/12/26 09:45:28;;;;;;;6.97;1.00;;;;;;;;;;5014539;28;20417;-78
2023/12/26 09:47:54;;;;;;;12.67;3.33;;;;;;;;;;5014754;28;20969;-77
2023/12/26 09:50:20;;;;;;;10.67;1.27;;;;;;;;;;5014717;28;20901;-77
2023/12/26 09:52:51;;;;;;;8.57;1.43;;;;;;;;;;5014667;28;20473;-77
2023/12/26 09:55:17;;;;;;;8.40;1.43;;;;;;;;;;5013561;28;20761;-78
2023/12/26 09:57:52;;;;;;;12.50;1.30;;;;;;;;;;5014678;28;20410;-78
2023/12/26 10:00:18;;;;;;;12.97;1.20;;;;;;;;;;5014077;28;20460;-78
2023/12/26 10:02:44;;;;;;;6.03;1.20;;;;;;;;;;5014554;28;20430;-77
2023/12/26 10:05:10;;;;;;;5.87;0.97;;;;;;;;;;5014534;28;20409;-78
2023/12/26 10:07:36;;;;;;;5.40;1.10;;;;;;;;;;5014492;28;20241;-77
2023/12/26 10:10:03;;;;;;;3.90;0.67;;;;;;;;;;5014444;28;20442;-78
2023/12/26 10:12:32;;;;;;;9.40;2.10;;;;;;;;;;5014241;28;20474;-77
2023/12/26 10:14:58;;;;;;;6.87;0.60;;;;;;;;;;5013986;28;20410;-77
2023/12/26 10:17:24;;;;;;;4.03;0.80;;;;;;;;;;5014311;28;20462;-76
2023/12/26 10:19:50;;;;;;;7.10;0.83;;;;;;;;;;5014306;28;20404;-78
2023/12/26 10:22:17;;;;;;;7.30;1.13;;;;;;;;;;5014256;28;20412;-78
2023/12/26 10:24:43;;;;;;;9.00;2.03;;;;;;;;;;5014140;28;20758;-78
2023/12/26 10:27:09;;;;;;;7.60;1.27;;;;;;;;;;5014177;28;20419;-77
2023/12/26 10:29:35;;;;;;;4.70;0.87;;;;;;;;;;5013742;28;20403;-78
2023/12/26 10:32:01;;;;;;;7.70;1.10;;;;;;;;;;5013992;28;20534;-78
2023/12/26 10:34:29;;;;;;;7.90;0.60;;;;;;;;;;5014004;28;20404;-77
2023/12/26 10:36:56;;;;;;;7.47;1.47;;;;;;;;;;5012693;28;20935;-77
2023/12/26 10:39:23;;;;;;;5.87;0.50;;;;;;;;;;5013981;28;20424;-78
2023/12/26 10:41:49;;;;;;;5.00;0.57;;;;;;;;;;5013961;28;20423;-77
2023/12/26 10:44:16;;;;;;;9.30;1.07;;;;;;;;;;5012588;28;20954;-77
2023/12/26 10:46:42;;;;;;;5.07;1.00;;;;;;;;;;5013778;28;20415;-77
2023/12/26 10:49:10;;;;;;;6.07;1.27;;;;;;;;;;5013766;28;20928;-77
2023/12/26 10:51:40;;;;;;;8.90;1.63;;;;;;;;;;5013669;28;20987;-78
2023/12/26 10:54:06;;;;;;;6.73;1.70;;;;;;;;;;5013647;28;20445;-77
2023/12/26 10:56:33;;;;;;;3.80;1.00;;;;;;;;;;5013747;28;20411;-77
2023/12/26 10:58:59;;;;;;;6.73;1.27;;;;;;;;;;5012432;28;20431;-78
2023/12/26 11:01:25;;;;;;;13.23;1.37;;;;;;;;;;5013011;28;20464;-78
2023/12/26 11:03:51;;;;;;;4.37;0.60;;;;;;;;;;5013591;28;20423;-78
2023/12/26 11:06:17;;;;;;;9.30;1.00;;;;;;;;;;5013558;28;20412;-78
2023/12/26 11:08:44;;;;;;;6.73;1.07;;;;;;;;;;5013382;28;20415;-76
2023/12/26 11:11:09;;;;;;;11.57;1.47;;;;;;;;;;5013358;28;20496;-78
2023/12/26 11:13:36;;;;;;;13.30;1.80;;;;;;;;;;5013361;28;20466;-78
2023/12/26 11:16:02;;;;;;;8.00;1.30;;;;;;;;;;5013094;28;20455;-79
2023/12/26 11:18:28;;;;;;;6.87;1.10;;;;;;;;;;5013177;28;20452;-77
2023/12/26 11:20:54;;;;;;;4.83;1.13;;;;;;;;;;5013440;28;20415;-78
2023/12/26 11:23:22;;;;;;;8.90;0.87;;;;;;;;;;5012062;28;20418;-78
2023/12/26 11:25:48;;;;;;;6.50;0.57;;;;;;;;;;5013276;28;20415;-78
2023/12/26 11:28:14;;;;;;;7.73;0.90;;;;;;;;;;5013220;28;20470;-77
2023/12/26 11:30:40;;;;;;;5.43;0.90;;;;;;;;;;5012870;28;20415;-78
2023/12/26 11:33:06;;;;;;;8.23;1.40;;;;;;;;;;5013102;28;20476;-77
2023/12/26 11:35:36;;;;;;;6.10;0.90;;;;;;;;;;5013170;28;20455;-77
2023/12/26 11:38:02;;;;;;;6.07;0.73;;;;;;;;;;5013074;28;20945;-76
2023/12/26 11:40:28;;;;;;;7.10;1.60;;;;;;;;;;5013182;28;20411;-77
2023/12/26 11:42:54;;;;;;;11.00;2.13;;;;;;;;;;5013157;28;20576;-77
2023/12/26 11:45:19;;;;;;;10.07;2.10;;;;;;;;;;5012732;28;20412;-78
2023/12/26 11:47:45;;;;;;;10.37;1.67;;;;;;;;;;5013021;28;20931;-77
2023/12/26 11:50:11;;;;;;;8.87;1.80;;;;;;;;;;5012750;28;20413;-76
2023/12/26 11:52:37;;;;;;;11.13;1.30;;;;;;;;;;5012853;28;20475;-78
2023/12/26 11:55:03;;;;;;;7.70;0.47;;;;;;;;;;5013066;28;20498;-77
2023/12/26 11:57:29;;;;;;;11.20;1.50;;;;;;;;;;5016945;28;20506;-78
2023/12/26 11:59:58;;;;;;;10.27;1.10;;;;;;;;;;5015226;28;21008;-77
2023/12/26 12:02:24;;;;;;;9.67;1.50;;;;;;;;;;5015375;28;20480;-77
2023/12/26 12:04:50;;;;;;;7.00;0.60;;;;;;;;;;5016791;28;20842;-77
2023/12/26 12:07:18;;;;;;;6.10;1.23;;;;;;;;;;5015511;28;20527;-77
2023/12/26 12:09:44;;;;;;;9.00;0.90;;;;;;;;;;5016648;28;20187;-77
2023/12/26 12:12:15;;;;;;;6.20;1.37;;;;;;;;;;5016558;28;20555;-77
2023/12/26 12:14:54;;;;;;;6.60;0.77;;;;;;;;;;5016334;28;20419;-76
2023/12/26 12:17:22;;;;;;;10.60;1.10;;;;;;;;;;5016584;28;20412;-77
2023/12/26 12:19:48;;;;;;;4.47;0.63;;;;;;;;;;5016480;28;20433;-78
2023/12/26 12:22:24;;;;;;;11.03;1.20;;;;;;;;;;5016429;28;20422;-77
2023/12/26 12:24:50;;;;;;;8.80;1.27;;;;;;;;;;5016487;28;20467;-78
2023/12/26 12:27:19;;;;;;;8.00;1.10;;;;;;;;;;5016385;28;20429;-78
2023/12/26 12:30:00;;;;;;;11.93;1.60;;;;;;;;;;5015943;28;20885;-77
2023/12/26 12:32:33;;;;;;;9.97;1.13;;;;;;;;;;5016215;28;20462;-76
2023/12/26 12:35:18;;;;;;;7.17;0.70;;;;;;;;;;5016254;28;20412;-77
2023/12/26 12:37:47;;;;;;;7.83;1.43;;;;;;;;;;5016321;28;20396;-77
2023/12/26 12:40:13;;;;;;;5.53;0.73;;;;;;;;;;5016045;28;20466;-77
2023/12/26 12:42:39;;;;;;;4.10;0.47;;;;;;;;;;5016216;28;20920;-77
2023/12/26 12:45:06;;;;;;;8.57;2.00;;;;;;;;;;5015790;28;20437;-77
2023/12/26 12:47:32;;;;;;;5.50;0.90;;;;;;;;;;5016130;28;20415;-77
2023/12/26 12:49:59;;;;;;;6.80;1.40;;;;;;;;;;5016152;28;20420;-77
2023/12/26 12:52:25;;;;;;;9.63;1.10;;;;;;;;;;5014658;28;21063;-77
2023/12/26 12:54:51;;;;;;;7.23;0.97;;;;;;;;;;5014655;28;20442;-77
2023/12/26 12:57:17;;;;;;;11.03;1.10;;;;;;;;;;5015891;28;20768;-78
2023/12/26 12:59:43;;;;;;;13.80;2.57;;;;;;;;;;5015441;28;20406;-77
2023/12/26 13:02:12;;;;;;;4.10;1.07;;;;;;;;;;5015786;28;20464;-77
2023/12/26 13:04:42;;;;;;;6.90;1.50;;;;;;;;;;5015700;28;20399;-77
2023/12/26 13:07:09;;;;;;;7.10;1.57;;;;;;;;;;5014843;28;20419;-76
2023/12/26 13:09:35;;;;;;;5.83;1.03;;;;;;;;;;5015854;28;20490;-77
2023/12/26 13:12:02;;;;;;;7.07;1.10;;;;;;;;;;5015668;28;20563;-77
2023/12/26 13:14:28;;;;;;;9.00;1.43;;;;;;;;;;5015391;28;20445;-77
2023/12/26 13:16:54;;;;;;;7.60;1.30;;;;;;;;;;5015674;28;20815;-76
2023/12/26 13:19:19;;;;;;;5.23;0.60;;;;;;;;;;5015603;28;20442;-77
2023/12/26 13:21:45;;;;;;;5.37;1.27;;;;;;;;;;5015596;28;20972;-78
2023/12/26 13:24:21;;;;;;;4.40;1.10;;;;;;;;;;5015512;28;20821;-78
2023/12/26 13:26:47;;;;;;;9.83;1.07;;;;;;;;;;5014238;28;20429;-77
2023/12/26 13:29:25;;;;;;;7.53;0.93;;;;;;;;;;5015169;28;20415;-77
2023/12/26 13:31:52;;;;;;;9.90;1.93;;;;;;;;;;5015312;28;20466;-78
2023/12/26 13:34:18;;;;;;;9.80;1.60;;;;;;;;;;5015184;28;20465;-78
2023/12/26 13:36:44;;;;;;;10.00;2.23;;;;;;;;;;5015075;28;20428;-77
2023/12/26 13:39:14;;;;;;;10.90;1.60;;;;;;;;;;5015066;28;20411;-79
2023/12/26 13:41:41;;;;;;;11.63;1.53;;;;;;;;;;5014894;28;20501;-78
2023/12/26 13:44:17;;;;;;;5.87;1.10;;;;;;;;;;5014614;28;20431;-78
2023/12/26 13:46:43;;;;;;;5.13;0.63;;;;;;;;;;5013662;28;20427;-78
2023/12/26 13:49:08;;;;;;;6.33;1.23;;;;;;;;;;5014807;28;20772;-78
2023/12/26 13:51:34;;;;;;;3.20;0.60;;;;;;;;;;5014753;28;20464;-78
2023/12/26 13:54:00;;;;;;;5.00;0.67;;;;;;;;;;5014722;28;20426;-78
2023/12/26 13:56:26;;;;;;;6.00;0.87;;;;;;;;;;5014828;28;20412;-78
2023/12/26 13:58:52;;;;;;;4.20;0.60;;;;;;;;;;5014335;28;20413;-78
2023/12/26 14:01:19;;;;;;;4.40;0.60;;;;;;;;;;5014505;28;20466;-79
2023/12/26 14:03:51;;;;;;;3.47;0.40;;;;;;;;;;5014486;28;20184;-78
2023/12/26 14:06:17;;;;;;;4.43;0.47;;;;;;;;;;5014610;28;20396;-78
2023/12/26 14:08:49;;;;;;;5.50;0.60;;;;;;;;;;5014563;28;20433;-77
2023/12/26 14:11:14;;;;;;;5.17;0.77;;;;;;;;;;5014365;28;20428;-78
2023/12/26 14:13:41;;;;;;;13.57;1.30;;;;;;;;;;5014172;28;20538;-78
2023/12/26 14:16:07;;;;;;;7.67;0.53;;;;;;;;;;5014249;28;20407;-78
2023/12/26 14:18:33;;;;;;;11.63;1.10;;;;;;;;;;5014243;28;20409;-78
2023/12/26 14:21:00;;;;;;;4.87;1.00;;;;;;;;;;5013038;28;20438;-78
2023/12/26 14:23:26;;;;;;;8.57;0.70;;;;;;;;;;5014228;28;20494;-79
2023/12/26 14:25:52;;;;;;;3.13;0.50;;;;;;;;;;5014205;28;20919;-78
2023/12/26 14:28:18;;;;;;;2.90;0.80;;;;;;;;;;5014043;28;20475;-78
2023/12/26 14:30:45;;;;;;;4.20;0.37;;;;;;;;;;5013756;28;20465;-79
2023/12/26 14:33:11;;;;;;;2.97;0.33;;;;;;;;;;5013983;28;20466;-79
2023/12/26 14:35:37;;;;;;;2.60;0.40;;;;;;;;;;5013029;28;20409;-79
2023/12/26 14:38:03;;;;;;;5.13;0.63;;;;;;;;;;5011005;28;20826;-79